Time;durP1;ratioP1;P1;durP2;ratioP2;P2;SDS_P1;SDS_P2;PMS_P1;PMS_P2;Temp;Humidity;BMP_temperature;BMP_pressure;BME280_temperature;BME280_humidity;BME280_pressure;Samples;Min_cycle;Max_cycle;Signal;HPM_P1;HPM_P2
2022/06/08 00:00:20;;;;;;;8.38;7.56;;;;;;;18.62;57.52;100715.02;460281;114;922528;-76
2022/06/08 00:01:23;;;;;;;10.34;6.37;;;;;;;18.60;57.60;100709.75;463038;114;922489;-76
2022/06/08 00:02:30;;;;;;;8.03;7.14;;;;;;;18.60;57.72;100708.92;463090;114;922830;-76
2022/06/08 00:03:36;;;;;;;8.59;7.71;;;;;;;18.59;57.84;100716.37;462950;114;930959;-76
2022/06/08 00:04:40;;;;;;;7.51;6.80;;;;;;;18.60;57.86;100704.23;462224;114;922490;-76
2022/06/08 00:05:44;;;;;;;10.25;7.81;;;;;;;18.61;57.93;100710.59;462965;114;922978;-76
2022/06/08 00:06:48;;;;;;;12.99;8.68;;;;;;;18.61;57.97;100716.11;462950;114;930590;-77
2022/06/08 00:07:52;;;;;;;10.58;7.76;;;;;;;18.62;58.01;100713.09;462937;114;923087;-77
2022/06/08 00:08:55;;;;;;;7.71;6.67;;;;;;;18.62;57.96;100710.33;462965;114;922581;-77
2022/06/08 00:09:59;;;;;;;7.51;6.76;;;;;;;18.62;57.96;100706.73;462908;114;922902;-76
2022/06/08 00:11:03;;;;;;;8.28;6.31;;;;;;;18.62;57.91;100709.50;462911;114;923276;-76
2022/06/08 00:12:07;;;;;;;7.34;5.63;;;;;;;18.61;57.85;100705.91;462897;114;922557;-77
2022/06/08 00:13:10;;;;;;;6.99;6.11;;;;;;;18.60;57.79;100706.99;464989;114;922832;-77
2022/06/08 00:14:14;;;;;;;8.18;6.22;;;;;;;18.59;57.70;100701.73;465340;114;923277;-76
2022/06/08 00:15:18;;;;;;;5.94;5.41;;;;;;;18.58;57.64;100706.41;465219;114;922780;-77
2022/06/08 00:16:21;;;;;;;6.19;5.69;;;;;;;18.57;57.64;100702.02;465242;114;923298;-76
2022/06/08 00:17:24;;;;;;;6.01;5.42;;;;;;;18.56;57.63;100708.63;465352;114;922851;-77
2022/06/08 00:18:27;;;;;;;7.34;5.31;;;;;;;18.56;57.64;100700.34;465392;114;922531;-77
2022/06/08 00:19:30;;;;;;;7.89;6.17;;;;;;;18.55;57.56;100703.36;465307;114;922593;-77
2022/06/08 00:20:34;;;;;;;7.41;5.95;;;;;;;18.54;57.61;100699.77;465382;114;923257;-77
2022/06/08 00:21:38;;;;;;;6.04;5.48;;;;;;;18.54;57.59;100698.89;465345;114;922534;-77
2022/06/08 00:22:41;;;;;;;8.56;6.54;;;;;;;18.51;57.60;100697.52;466570;114;922640;-76
2022/06/08 00:23:45;;;;;;;6.72;6.08;;;;;;;18.50;57.59;100703.29;466296;114;922838;-76
2022/06/08 00:24:49;;;;;;;6.85;5.49;;;;;;;18.47;57.64;100699.11;465305;113;930718;-76
2022/06/08 00:25:52;;;;;;;10.02;5.59;;;;;;;18.45;57.64;100695.80;465880;114;922711;-76
2022/06/08 00:26:56;;;;;;;6.42;4.99;;;;;;;18.44;57.64;100698.82;466421;114;922686;-76
2022/06/08 00:27:59;;;;;;;6.03;5.34;;;;;;;18.42;57.68;100695.48;466487;114;922717;-77
2022/06/08 00:29:03;;;;;;;6.69;5.56;;;;;;;18.40;57.71;100693.00;467973;112;922236;-76
2022/06/08 00:30:08;;;;;;;6.79;5.00;;;;;;;18.41;57.72;100696.60;462668;114;922276;-76
2022/06/08 00:31:12;;;;;;;5.56;4.87;;;;;;;18.39;57.66;100693.26;463458;112;922344;-76
2022/06/08 00:32:17;;;;;;;7.08;5.34;;;;;;;18.38;57.74;100697.95;472244;112;922739;-76
2022/06/08 00:33:20;;;;;;;7.25;5.04;;;;;;;18.39;57.81;100702.38;472286;112;922375;-76
2022/06/08 00:34:24;;;;;;;6.33;5.70;;;;;;;18.39;57.75;100702.38;472307;112;922134;-76
2022/06/08 00:35:28;;;;;;;7.45;5.37;;;;;;;18.40;57.71;100700.45;472278;112;922669;-76
2022/06/08 00:36:31;;;;;;;6.34;5.67;;;;;;;18.39;57.56;100691.33;472288;112;922272;-76
2022/06/08 00:37:34;;;;;;;5.44;4.94;;;;;;;18.38;57.51;100689.66;472283;112;922661;-76
2022/06/08 00:38:37;;;;;;;6.12;5.53;;;;;;;18.38;57.52;100700.70;472178;112;922438;-76
2022/06/08 00:39:41;;;;;;;10.06;5.58;;;;;;;18.38;57.50;100705.39;472241;112;922395;-77
2022/06/08 00:41:14;;;;;;;6.01;5.40;;;;;;;18.37;57.47;100698.20;463090;114;922966;-76
2022/06/08 00:42:18;;;;;;;8.06;5.79;;;;;;;18.36;57.52;100702.08;467514;112;922098;-76
2022/06/08 00:43:21;;;;;;;9.61;6.25;;;;;;;18.33;57.45;100701.50;472299;112;922033;-77
2022/06/08 00:44:37;;;;;;;6.59;5.94;;;;;;;18.32;57.46;100702.59;472309;112;922729;-76
2022/06/08 00:45:40;;;;;;;9.26;5.73;;;;;;;18.32;57.44;100696.23;464661;112;922561;-76
2022/06/08 00:46:44;;;;;;;6.64;5.96;;;;;;;18.30;57.37;100698.45;464119;114;922463;-77
2022/06/08 00:47:51;;;;;;;7.70;6.06;;;;;;;18.28;57.34;100698.70;463965;114;922262;-77
2022/06/08 00:49:05;;;;;;;6.53;5.91;;;;;;;18.37;57.39;100692.68;477719;110;947441;-75
2022/06/08 00:50:17;;;;;;;7.32;5.89;;;;;;;18.22;57.48;100696.98;458787;113;923737;-75
2022/06/08 00:51:28;;;;;;;8.00;6.55;;;;;;;18.33;57.56;100706.19;478075;110;946821;-75
2022/06/08 00:52:34;;;;;;;8.47;6.84;;;;;;;18.22;57.55;100694.23;466529;113;922235;-75
2022/06/08 00:54:03;;;;;;;9.91;6.95;;;;;;;18.22;57.61;100701.67;466385;114;922267;-75
2022/06/08 00:55:10;;;;;;;9.57;8.56;;;;;;;18.21;57.60;100700.00;459451;114;922327;-76
2022/06/08 00:56:17;;;;;;;12.62;9.18;;;;;;;18.18;57.67;100701.37;457032;116;922843;-76
2022/06/08 00:57:36;;;;;;;10.65;9.70;;;;;;;18.18;57.73;100701.37;456632;116;922319;-75
2022/06/08 00:58:39;;;;;;;10.88;9.80;;;;;;;18.17;57.83;100696.95;456631;116;922183;-76
2022/06/08 00:59:45;;;;;;;11.63;10.47;;;;;;;18.16;57.77;100700.79;456853;116;922683;-75
2022/06/08 01:00:48;;;;;;;12.77;10.41;;;;;;;18.15;57.76;100701.05;456629;116;922286;-75
2022/06/08 01:01:53;;;;;;;13.64;10.35;;;;;;;18.15;57.78;100698.28;456796;116;922687;-76
2022/06/08 01:02:57;;;;;;;12.73;11.34;;;;;;;18.15;57.79;100698.28;447468;118;922254;-76
2022/06/08 01:04:10;;;;;;;11.57;10.48;;;;;;;18.14;57.79;100694.69;448058;116;922598;-76
2022/06/08 01:05:23;;;;;;;12.68;10.88;;;;;;;18.14;57.80;100699.41;439004;121;923332;-77
2022/06/08 01:06:27;;;;;;;11.07;9.99;;;;;;;18.13;57.79;100695.81;444319;116;922142;-75
2022/06/08 01:07:30;;;;;;;10.92;9.58;;;;;;;18.12;57.76;100696.06;456419;114;922186;-77
2022/06/08 01:08:42;;;;;;;12.31;9.53;;;;;;;18.11;57.81;100697.15;455927;114;922154;-76
2022/06/08 01:09:49;;;;;;;10.63;9.19;;;;;;;18.10;57.84;100698.23;455950;114;922143;-75
2022/06/08 01:10:55;;;;;;;12.41;9.13;;;;;;;18.10;57.79;100706.52;465187;114;922852;-76
2022/06/08 01:12:02;;;;;;;10.25;7.87;;;;;;;18.08;57.80;100694.93;460069;114;922604;-76
2022/06/08 01:13:05;;;;;;;9.89;8.05;;;;;;;18.07;57.88;100698.78;447972;116;923448;-76
2022/06/08 01:14:12;;;;;;;8.73;7.89;;;;;;;18.07;57.93;100698.78;451398;115;922589;-76
2022/06/08 01:15:19;;;;;;;9.39;8.44;;;;;;;18.08;57.89;100697.69;456745;114;922997;-77
2022/06/08 01:16:22;;;;;;;8.57;7.64;;;;;;;18.06;57.91;100694.34;450044;117;922424;-76
2022/06/08 01:17:26;;;;;;;11.32;7.68;;;;;;;18.06;57.91;100691.59;440061;119;922543;-76
2022/06/08 01:18:31;;;;;;;8.84;7.33;;;;;;;18.05;57.92;100692.67;444529;116;923334;-77
2022/06/08 01:19:37;;;;;;;8.17;7.28;;;;;;;18.04;57.98;100697.36;457454;114;923160;-77
2022/06/08 01:20:50;;;;;;;10.31;8.37;;;;;;;18.01;57.98;100695.13;457261;116;923017;-77
2022/06/08 01:21:57;;;;;;;9.61;7.26;;;;;;;17.99;58.02;100707.52;457339;116;922854;-77
2022/06/08 01:23:02;;;;;;;11.09;7.69;;;;;;;17.96;58.04;100697.01;456751;115;923079;-77
2022/06/08 01:24:09;;;;;;;11.28;8.77;;;;;;;17.95;58.17;100695.34;457523;116;922477;-77
2022/06/08 01:25:15;;;;;;;11.87;8.74;;;;;;;17.93;58.30;100699.19;457317;114;930752;-77
2022/06/08 01:26:36;;;;;;;11.94;10.00;;;;;;;17.92;58.25;100696.68;456984;115;922819;-76
2022/06/08 01:28:02;;;;;;;11.32;10.24;;;;;;;17.92;58.21;100702.20;459034;115;922551;-76
2022/06/08 01:29:25;;;;;;;12.63;10.61;;;;;;;17.90;58.26;100701.64;452526;115;923692;-76
2022/06/08 01:30:38;;;;;;;11.63;10.43;;;;;;;17.86;58.28;100698.55;459856;115;923060;-75
2022/06/08 01:31:47;;;;;;;12.76;11.51;;;;;;;17.83;58.33;100698.25;460152;115;922842;-76
2022/06/08 01:33:03;;;;;;;13.03;11.86;;;;;;;17.81;58.38;100706.77;460102;115;922940;-75
2022/06/08 01:34:19;;;;;;;13.66;12.17;;;;;;;17.79;58.40;100697.95;456408;115;922556;-76
2022/06/08 01:35:54;;;;;;;18.30;13.36;;;;;;;17.76;58.41;100700.38;448847;117;923102;-76
2022/06/08 01:37:12;;;;;;;14.49;13.09;;;;;;;17.74;58.48;100700.66;449374;118;923089;-76
2022/06/08 01:38:28;;;;;;;15.22;13.63;;;;;;;17.70;58.58;100698.64;449387;118;922690;-77
2022/06/08 01:39:35;;;;;;;15.49;13.79;;;;;;;17.67;58.68;100700.02;449309;116;922536;-77
2022/06/08 01:41:07;;;;;;;22.52;17.09;;;;;;;17.76;58.74;100698.45;476742;110;946900;-77
2022/06/08 01:42:33;;;;;;;20.35;15.70;;;;;;;17.65;58.76;100698.59;456993;115;922771;-77
2022/06/08 01:43:47;;;;;;;19.18;16.19;;;;;;;17.62;58.67;100696.36;456551;115;922931;-77
2022/06/08 01:46:26;;;;;;;23.44;17.98;;;;;;;17.57;58.79;100701.79;464380;114;922568;-77
2022/06/08 01:47:41;;;;;;;23.41;17.82;;;;;;;17.56;58.89;100700.12;455110;116;922558;-76
2022/06/08 01:48:56;;;;;;;18.38;16.31;;;;;;;17.55;58.92;100698.45;430751;122;922847;-77
2022/06/08 01:50:14;;;;;;;21.63;17.45;;;;;;;17.53;59.00;100708.92;462694;114;922894;-77
2022/06/08 01:51:49;;;;;;;19.29;17.52;;;;;;;17.51;59.10;100700.89;464409;114;922533;-77
2022/06/08 01:53:08;;;;;;;19.79;17.67;;;;;;;17.48;59.12;100701.39;464314;114;922544;-76
2022/06/08 01:54:24;;;;;;;17.71;15.98;;;;;;;17.47;59.25;100703.34;453896;116;922496;-76
2022/06/08 01:55:30;;;;;;;21.23;16.66;;;;;;;17.46;59.43;100709.95;438449;121;923265;-76
2022/06/08 01:56:51;;;;;;;20.76;17.67;;;;;;;17.58;59.65;100708.98;476933;110;946701;-76
2022/06/08 01:58:03;;;;;;;18.58;16.80;;;;;;;17.50;59.68;100710.25;464783;113;923460;-76
2022/06/08 01:59:13;;;;;;;18.78;16.94;;;;;;;17.51;59.69;100714.69;464954;113;922609;-77
2022/06/08 02:00:21;;;;;;;19.56;17.57;;;;;;;17.52;59.70;100713.59;457334;115;922998;-76
2022/06/08 02:01:32;;;;;;;19.37;16.87;;;;;;;17.54;59.73;100714.16;457200;115;923006;-76
2022/06/08 02:02:56;;;;;;;19.32;16.76;;;;;;;17.57;59.72;100710.06;451103;116;923057;-76
2022/06/08 02:04:34;;;;;;;20.83;17.97;;;;;;;17.58;59.71;100711.73;457081;115;923248;-76
2022/06/08 02:05:44;;;;;;;20.48;18.33;;;;;;;17.60;59.74;100715.08;457176;116;923040;-76
2022/06/08 02:07:03;;;;;;;22.94;17.89;;;;;;;17.61;59.78;100720.34;456707;115;922899;-76
2022/06/08 02:08:09;;;;;;;19.84;17.52;;;;;;;17.61;59.80;100713.99;440114;120;923270;-76
2022/06/08 02:09:39;;;;;;;29.43;17.74;;;;;;;17.62;59.78;100719.26;451132;115;922607;-76
2022/06/08 02:10:51;;;;;;;19.97;17.50;;;;;;;17.64;59.73;100716.25;457148;116;923149;-76
2022/06/08 02:11:58;;;;;;;23.14;17.06;;;;;;;17.67;59.58;100712.97;457040;115;923392;-76
2022/06/08 02:13:13;;;;;;;20.23;17.58;;;;;;;17.67;59.48;100712.97;457134;116;922738;-76
2022/06/08 02:14:19;;;;;;;19.32;16.87;;;;;;;17.67;59.40;100710.20;456906;115;923407;-77
2022/06/08 02:15:34;;;;;;;23.08;17.46;;;;;;;17.68;59.37;100714.64;451035;117;923049;-76
2022/06/08 02:16:42;;;;;;;19.62;15.91;;;;;;;17.67;59.32;100708.28;445655;117;923135;-76
2022/06/08 02:17:55;;;;;;;19.31;16.99;;;;;;;17.66;59.31;100709.37;450698;116;922630;-77
2022/06/08 02:19:06;;;;;;;18.14;16.16;;;;;;;17.64;59.30;100711.55;456543;115;922555;-77
2022/06/08 02:20:20;;;;;;;17.34;15.61;;;;;;;17.65;59.30;100712.38;457132;116;923277;-77
2022/06/08 02:21:29;;;;;;;20.66;16.31;;;;;;;17.65;59.31;100715.97;457125;116;922911;-76
2022/06/08 02:22:45;;;;;;;17.92;16.04;;;;;;;17.65;59.26;100707.70;457586;115;923174;-76
2022/06/08 02:24:01;;;;;;;17.98;15.51;;;;;;;17.66;59.25;100716.81;457727;115;930526;-76
2022/06/08 02:25:24;;;;;;;17.34;15.18;;;;;;;17.66;59.20;100714.05;458084;115;923215;-77
2022/06/08 02:26:31;;;;;;;22.25;15.83;;;;;;;17.66;59.24;100714.88;442398;116;922727;-76
2022/06/08 02:27:38;;;;;;;20.03;16.26;;;;;;;17.66;59.30;100716.81;455648;115;923231;-76
2022/06/08 02:28:59;;;;;;;18.24;16.46;;;;;;;17.65;59.31;100721.48;453928;116;923108;-76
2022/06/08 02:30:15;;;;;;;16.97;14.97;;;;;;;17.66;59.24;100720.40;454955;116;922904;-76
2022/06/08 02:31:31;;;;;;;21.48;15.76;;;;;;;17.66;59.21;100725.91;457177;115;924108;-75
2022/06/08 02:34:29;;;;;;;18.84;16.43;;;;;;;17.63;59.19;100723.69;457146;116;923031;-76
2022/06/08 02:35:44;;;;;;;17.94;15.29;;;;;;;17.62;59.27;100722.02;457151;116;922960;-77
2022/06/08 02:36:53;;;;;;;17.26;15.49;;;;;;;17.61;59.31;100728.62;449715;117;923174;-76
2022/06/08 02:38:00;;;;;;;18.89;15.73;;;;;;;17.61;59.40;100727.78;447834;117;923466;-76
2022/06/08 02:39:06;;;;;;;17.85;16.15;;;;;;;17.59;59.34;100719.73;451574;116;922948;-76
2022/06/08 02:40:16;;;;;;;20.74;16.58;;;;;;;17.59;59.23;100729.95;454985;114;923056;-77
2022/06/08 02:41:22;;;;;;;17.77;15.36;;;;;;;17.58;59.20;100723.60;460961;114;922596;-75
2022/06/08 02:42:32;;;;;;;22.38;16.44;;;;;;;17.57;59.23;100740.39;441274;117;922696;-76
2022/06/08 02:43:39;;;;;;;17.57;15.92;;;;;;;17.58;59.31;100733.80;441510;118;922701;-76
2022/06/08 02:44:46;;;;;;;18.17;16.08;;;;;;;17.57;59.34;100735.71;440347;119;923102;-76
2022/06/08 02:45:57;;;;;;;17.54;15.85;;;;;;;17.59;59.44;100736.27;441022;118;922944;-76
2022/06/08 02:47:18;;;;;;;20.91;15.93;;;;;;;17.61;59.49;100739.64;449131;117;922818;-76
2022/06/08 02:48:21;;;;;;;16.78;14.63;;;;;;;17.63;59.49;100731.96;449342;118;923286;-76
2022/06/08 02:49:24;;;;;;;17.41;15.07;;;;;;;17.65;59.56;100728.92;449470;118;922902;-77
2022/06/08 02:50:29;;;;;;;17.39;15.03;;;;;;;17.65;59.50;100732.52;449505;118;923082;-76
2022/06/08 02:51:33;;;;;;;16.86;14.90;;;;;;;17.66;59.53;100731.43;449309;118;922896;-76
2022/06/08 02:52:36;;;;;;;17.10;13.78;;;;;;;17.67;59.53;100735.03;450464;117;922998;-76
2022/06/08 02:53:46;;;;;;;16.22;14.59;;;;;;;17.67;59.50;100730.34;452966;117;923069;-77
2022/06/08 02:54:51;;;;;;;19.37;13.18;;;;;;;17.66;59.59;100736.95;451635;117;923352;-76
2022/06/08 02:56:12;;;;;;;15.35;13.84;;;;;;;17.66;59.64;100736.11;451891;117;922767;-76
2022/06/08 02:57:45;;;;;;;16.00;12.41;;;;;;;17.65;59.72;100740.79;448923;117;923113;-76
2022/06/08 02:58:56;;;;;;;14.22;12.78;;;;;;;17.64;59.78;100746.59;449880;117;923019;-76
2022/06/08 03:00:15;;;;;;;16.63;12.82;;;;;;;17.62;59.90;100735.80;451004;116;922558;-76
2022/06/08 03:01:40;;;;;;;14.31;12.78;;;;;;;17.62;59.95;100734.97;457188;116;923110;-76
2022/06/08 03:02:59;;;;;;;14.78;13.06;;;;;;;17.61;59.97;100741.56;457165;116;923107;-76
2022/06/08 03:04:21;;;;;;;16.43;13.06;;;;;;;17.62;60.07;100746.00;456705;115;922954;-76
2022/06/08 03:05:36;;;;;;;19.30;13.44;;;;;;;17.60;60.09;100743.48;456475;116;923010;-76
2022/06/08 03:06:52;;;;;;;13.76;12.28;;;;;;;17.60;60.17;100740.73;457158;115;922629;-76
2022/06/08 03:08:08;;;;;;;19.31;13.48;;;;;;;17.59;60.28;100744.54;454951;115;922548;-77
2022/06/08 03:09:15;;;;;;;13.67;12.13;;;;;;;17.61;60.25;100744.33;457092;116;923045;-76
2022/06/08 03:10:21;;;;;;;14.54;12.26;;;;;;;17.63;60.25;100742.16;457083;115;922948;-77
2022/06/08 03:11:27;;;;;;;13.98;12.40;;;;;;;17.64;60.27;100746.59;457113;116;923097;-77
2022/06/08 03:12:36;;;;;;;19.10;13.36;;;;;;;17.65;60.26;100738.03;456843;115;922582;-76
2022/06/08 03:13:52;;;;;;;14.51;12.31;;;;;;;17.68;60.29;100739.45;457138;116;923074;-77
2022/06/08 03:14:56;;;;;;;14.13;12.86;;;;;;;17.71;60.26;100738.92;457177;116;922462;-76
2022/06/08 03:16:02;;;;;;;15.86;13.17;;;;;;;17.73;60.19;100747.78;457208;115;922577;-77
2022/06/08 03:17:07;;;;;;;16.21;12.87;;;;;;;17.75;60.17;100745.62;457119;116;922994;-77
2022/06/08 03:18:11;;;;;;;14.30;12.85;;;;;;;17.77;60.26;100741.48;457167;115;922474;-76
2022/06/08 03:19:14;;;;;;;18.86;12.75;;;;;;;17.80;60.17;100737.39;457255;115;930473;-75
2022/06/08 03:20:21;;;;;;;14.56;12.61;;;;;;;17.83;60.22;100745.14;450267;117;923111;-75
2022/06/08 03:21:26;;;;;;;16.75;13.17;;;;;;;17.86;60.16;100739.93;450722;116;923175;-75
2022/06/08 03:22:29;;;;;;;16.52;13.81;;;;;;;17.88;60.05;100740.52;450100;117;923047;-76
2022/06/08 03:23:32;;;;;;;19.92;15.64;;;;;;;17.89;60.04;100736.67;450431;116;922913;-76
2022/06/08 03:24:35;;;;;;;23.63;17.39;;;;;;;17.91;59.99;100742.77;457256;115;922979;-76
2022/06/08 03:25:40;;;;;;;22.12;18.02;;;;;;;17.93;59.99;100737.81;450127;117;922716;-77
2022/06/08 03:26:46;;;;;;;24.67;20.29;;;;;;;17.97;59.98;100742.83;450405;116;923278;-76
2022/06/08 03:27:50;;;;;;;31.13;21.92;;;;;;;17.99;59.86;100740.62;452705;116;923104;-76
2022/06/08 03:28:53;;;;;;;25.99;20.07;;;;;;;18.02;59.86;100740.95;452169;117;923236;-75
2022/06/08 03:29:57;;;;;;;34.13;22.30;;;;;;;18.06;59.86;100741.25;449338;118;922716;-75
2022/06/08 03:31:03;;;;;;;26.19;21.75;;;;;;;18.08;59.82;100730.80;449167;117;922459;-76
2022/06/08 03:32:07;;;;;;;23.25;20.46;;;;;;;18.11;59.86;100741.30;449290;118;922613;-76
2022/06/08 03:33:12;;;;;;;31.91;22.21;;;;;;;18.15;59.84;100739.68;450007;117;930665;-76
2022/06/08 03:34:16;;;;;;;32.41;23.14;;;;;;;18.17;59.85;100743.02;455659;115;922589;-75
2022/06/08 03:35:20;;;;;;;32.80;21.82;;;;;;;18.21;59.84;100738.64;457946;115;922864;-76
2022/06/08 03:36:24;;;;;;;40.82;26.45;;;;;;;18.24;59.89;100738.13;457857;115;923117;-75
2022/06/08 03:37:28;;;;;;;38.01;24.60;;;;;;;18.28;59.92;100740.11;458002;115;923122;-76
2022/06/08 03:38:32;;;;;;;36.27;22.51;;;;;;;18.33;59.88;100733.80;451413;115;922678;-76
2022/06/08 03:39:35;;;;;;;32.29;22.48;;;;;;;18.37;59.86;100737.69;449428;118;923077;-76
2022/06/08 03:40:38;;;;;;;29.04;22.25;;;;;;;18.40;59.78;100739.94;449380;118;923016;-76
2022/06/08 03:41:44;;;;;;;35.62;25.98;;;;;;;18.41;59.67;100733.33;449315;116;930278;-76
2022/06/08 03:42:47;;;;;;;50.90;32.17;;;;;;;18.43;59.61;100728.36;449209;118;923717;-77
2022/06/08 03:43:50;;;;;;;37.32;28.61;;;;;;;18.44;59.42;100738.31;449402;118;922592;-76
2022/06/08 03:44:54;;;;;;;46.03;29.64;;;;;;;18.47;59.33;100736.97;449309;118;922656;-76
2022/06/08 03:46:00;;;;;;;42.98;28.69;;;;;;;18.48;59.23;100736.68;449442;117;922910;-76
2022/06/08 03:47:09;;;;;;;38.67;24.14;;;;;;;18.50;59.13;100739.19;449183;118;923575;-77
2022/06/08 03:48:14;;;;;;;35.17;24.28;;;;;;;18.52;59.11;100739.77;449223;118;922649;-76
2022/06/08 03:49:17;;;;;;;37.12;25.44;;;;;;;18.53;58.94;100739.48;449346;118;922530;-75
2022/06/08 03:50:24;;;;;;;38.54;25.86;;;;;;;18.53;58.88;100730.36;449371;118;923105;-75
2022/06/08 03:51:28;;;;;;;44.46;28.14;;;;;;;18.55;58.78;100733.73;449252;118;923036;-77
2022/06/08 03:52:36;;;;;;;38.26;27.44;;;;;;;18.56;58.77;100735.41;442759;119;923193;-76
2022/06/08 03:53:58;;;;;;;44.92;28.86;;;;;;;18.57;58.75;100729.63;445067;117;923102;-76
2022/06/08 03:55:04;;;;;;;42.69;28.46;;;;;;;18.59;58.65;100735.70;453683;117;922500;-75
2022/06/08 03:56:10;;;;;;;41.09;28.07;;;;;;;18.60;58.60;100737.38;453813;117;922629;-75
2022/06/08 03:57:14;;;;;;;40.43;29.90;;;;;;;18.61;58.58;100736.28;453895;116;922789;-75
2022/06/08 03:58:20;;;;;;;44.12;29.27;;;;;;;18.64;58.56;100726.62;453966;116;922652;-76
2022/06/08 03:59:24;;;;;;;44.14;30.61;;;;;;;18.66;58.49;100733.55;453852;116;922621;-75
2022/06/08 04:00:28;;;;;;;47.93;30.98;;;;;;;18.69;58.40;100726.66;453923;117;923230;-76
2022/06/08 04:01:34;;;;;;;43.32;29.42;;;;;;;18.71;58.30;100727.23;453494;117;923012;-75
2022/06/08 04:02:37;;;;;;;46.08;31.14;;;;;;;18.73;58.27;100725.05;453980;117;922625;-75
2022/06/08 04:03:41;;;;;;;56.49;35.61;;;;;;;18.76;58.24;100732.80;454096;117;923141;-76
2022/06/08 04:04:44;;;;;;;53.39;35.73;;;;;;;18.79;58.07;100728.68;454044;117;922697;-75
2022/06/08 04:05:47;;;;;;;54.22;36.63;;;;;;;18.81;57.86;100726.47;453963;116;922904;-76
2022/06/08 04:06:52;;;;;;;58.67;35.71;;;;;;;18.84;57.76;100728.72;453566;117;922976;-75
2022/06/08 04:07:56;;;;;;;59.27;38.05;;;;;;;18.88;57.69;100727.08;453980;117;922994;-76
2022/06/08 04:09:00;;;;;;;60.36;39.12;;;;;;;18.91;57.61;100723.80;453855;117;930347;-76
2022/06/08 04:10:05;;;;;;;55.74;36.79;;;;;;;18.94;57.54;100726.85;453896;117;922657;-76
2022/06/08 04:11:09;;;;;;;62.70;37.47;;;;;;;18.97;57.47;100731.00;453887;117;922606;-76
2022/06/08 04:12:13;;;;;;;54.46;35.10;;;;;;;19.00;57.43;100728.55;453884;116;922592;-76
2022/06/08 04:13:17;;;;;;;54.12;35.39;;;;;;;19.06;57.07;100726.66;453921;117;930555;-76
2022/06/08 04:14:21;;;;;;;53.33;36.56;;;;;;;19.06;57.07;100726.66;453975;117;923117;-76
2022/06/08 04:15:42;;;;;;;54.56;34.85;;;;;;;19.08;57.17;100727.20;453877;117;930500;-77
2022/06/08 04:16:48;;;;;;;51.61;34.89;;;;;;;19.10;57.12;100725.01;453397;117;923242;-77
2022/06/08 04:17:53;;;;;;;58.00;37.46;;;;;;;19.13;57.07;100730.02;453739;116;923089;-75
2022/06/08 04:18:56;;;;;;;58.32;37.09;;;;;;;19.14;57.06;100728.89;454036;116;922677;-76
2022/06/08 04:20:01;;;;;;;63.06;40.86;;;;;;;19.18;57.07;100734.73;453824;117;923029;-76
2022/06/08 04:21:08;;;;;;;58.85;38.49;;;;;;;19.20;57.11;100727.83;454037;117;922544;-76
2022/06/08 04:22:13;;;;;;;66.51;42.18;;;;;;;19.24;57.06;100733.67;453653;116;923821;-75
2022/06/08 04:23:18;;;;;;;73.47;44.85;;;;;;;19.28;57.10;100737.55;453897;116;923049;-76
2022/06/08 04:24:23;;;;;;;70.41;44.58;;;;;;;19.30;57.03;100727.88;453788;116;924062;-77
2022/06/08 04:25:28;;;;;;;61.82;44.10;;;;;;;19.34;56.97;100734.55;453670;116;923219;-77
2022/06/08 04:26:32;;;;;;;71.62;44.31;;;;;;;19.38;56.97;100730.14;453887;116;923139;-76
2022/06/08 04:27:40;;;;;;;76.47;44.29;;;;;;;19.41;56.87;100729.59;453711;117;923153;-77
2022/06/08 04:28:45;;;;;;;74.06;45.03;;;;;;;19.44;56.72;100726.30;454061;117;923028;-76
2022/06/08 04:29:51;;;;;;;77.68;47.38;;;;;;;19.47;56.52;100727.70;449029;116;923125;-76
2022/06/08 04:30:55;;;;;;;80.72;47.19;;;;;;;19.50;56.33;100725.25;449195;118;923032;-76
2022/06/08 04:31:58;;;;;;;70.66;45.44;;;;;;;19.54;56.15;100731.91;449311;118;922630;-76
2022/06/08 04:33:03;;;;;;;72.50;42.84;;;;;;;19.57;55.97;100728.58;449115;118;923085;-77
2022/06/08 04:34:09;;;;;;;67.14;43.16;;;;;;;19.60;55.77;100721.69;449839;117;930501;-76
2022/06/08 04:35:13;;;;;;;77.33;47.98;;;;;;;19.65;55.62;100729.17;453819;117;930519;-76
2022/06/08 04:36:16;;;;;;;73.17;46.40;;;;;;;19.68;55.47;100721.17;453911;117;922492;-76
2022/06/08 04:37:20;;;;;;;72.81;46.02;;;;;;;19.72;55.36;100732.52;453902;116;931125;-76
2022/06/08 04:38:25;;;;;;;73.97;44.44;;;;;;;19.74;55.26;100731.13;453807;117;922600;-76
2022/06/08 04:39:29;;;;;;;74.41;49.13;;;;;;;19.77;55.23;100729.77;453942;116;922628;-76
2022/06/08 04:40:35;;;;;;;75.11;47.10;;;;;;;19.78;55.19;100725.91;453830;117;922537;-76
2022/06/08 04:41:39;;;;;;;72.97;47.36;;;;;;;19.81;55.21;100736.41;453935;116;923116;-76
2022/06/08 04:42:42;;;;;;;79.48;50.64;;;;;;;19.82;55.13;100727.02;454025;117;923096;-75
2022/06/08 04:43:46;;;;;;;85.56;54.64;;;;;;;19.84;55.02;100722.05;453886;117;923206;-77
2022/06/08 04:44:50;;;;;;;89.59;60.59;;;;;;;19.86;54.81;100728.95;457140;116;922847;-75
2022/06/08 04:45:54;;;;;;;99.21;64.54;;;;;;;19.88;54.63;100735.06;457100;115;922544;-77
2022/06/08 04:46:58;;;;;;;95.96;61.26;;;;;;;19.93;54.37;100725.94;457318;115;922590;-77
2022/06/08 04:48:03;;;;;;;94.56;61.62;;;;;;;19.95;54.15;100719.04;457109;116;922783;-77
2022/06/08 04:49:08;;;;;;;99.97;65.87;;;;;;;19.98;54.04;100724.02;447614;118;923176;-77
2022/06/08 04:50:14;;;;;;;105.98;67.31;;;;;;;20.02;53.89;100726.22;448354;116;922708;-75
2022/06/08 04:51:18;;;;;;;88.01;59.11;;;;;;;20.05;53.67;100726.53;450135;117;923105;-76
2022/06/08 04:52:21;;;;;;;91.76;58.31;;;;;;;20.08;53.55;100720.42;450336;115;930385;-76
2022/06/08 04:53:24;;;;;;;94.36;59.38;;;;;;;20.11;53.53;100716.30;458086;115;930342;-75
2022/06/08 04:54:28;;;;;;;90.67;59.66;;;;;;;20.13;53.48;100723.20;458201;115;930545;-76
2022/06/08 04:55:31;;;;;;;90.26;55.99;;;;;;;20.15;53.45;100720.16;453388;117;923159;-77
2022/06/08 04:56:35;;;;;;;85.59;57.48;;;;;;;20.18;53.47;100727.94;452562;116;923134;-77
2022/06/08 04:57:38;;;;;;;96.05;57.61;;;;;;;20.20;53.44;100723.77;451306;117;922658;-76
2022/06/08 04:58:42;;;;;;;89.09;59.98;;;;;;;20.22;53.27;100724.34;451829;115;930504;-77
2022/06/08 04:59:45;;;;;;;89.53;57.62;;;;;;;20.25;53.06;100723.78;458098;115;923391;-77
2022/06/08 05:00:50;;;;;;;95.30;58.20;;;;;;;20.28;52.93;100725.18;457945;115;930051;-76
2022/06/08 05:01:54;;;;;;;89.40;58.21;;;;;;;20.29;52.82;100727.65;458162;115;922602;-77
2022/06/08 05:02:58;;;;;;;91.94;57.96;;;;;;;20.33;52.68;100722.44;458231;115;930453;-76
2022/06/08 05:04:03;;;;;;;93.12;60.18;;;;;;;20.35;52.48;100721.05;457723;115;923144;-76
2022/06/08 05:05:07;;;;;;;97.59;58.14;;;;;;;20.38;52.33;100728.81;458189;115;922721;-76
2022/06/08 05:06:10;;;;;;;87.40;57.39;;;;;;;20.40;52.15;100728.52;458171;115;922523;-76
2022/06/08 05:07:13;;;;;;;95.07;59.81;;;;;;;20.42;52.02;100731.85;458239;115;930124;-76
2022/06/08 05:08:18;;;;;;;96.83;61.35;;;;;;;20.45;51.94;100724.95;458279;115;922602;-77
2022/06/08 05:09:22;;;;;;;88.93;59.08;;;;;;;20.48;51.73;100727.15;449002;118;923504;-77
2022/06/08 05:10:28;;;;;;;96.88;59.92;;;;;;;20.50;51.70;100727.71;449616;115;922627;-76